sensor_id;sensor_type;location;lat;lon;timestamp;pressure;altitude;pressure_sealevel;temperature;humidity
5062;BME280;2351;50.812;12.872;2023-07-31T00:02:03;97677.66;;;14.16;85.63
5062;BME280;2351;50.812;12.872;2023-07-31T00:04:35;97669.00;;;14.14;85.83
5062;BME280;2351;50.812;12.872;2023-07-31T00:07:07;97676.31;;;14.12;85.82
5062;BME280;2351;50.812;12.872;2023-07-31T00:09:40;97672.97;;;14.10;85.73
5062;BME280;2351;50.812;12.872;2023-07-31T00:12:12;97677.47;;;14.10;86.04
5062;BME280;2351;50.812;12.872;2023-07-31T00:14:45;97679.13;;;14.11;85.76
5062;BME280;2351;50.812;12.872;2023-07-31T00:17:17;97673.81;;;14.11;85.97
5062;BME280;2351;50.812;12.872;2023-07-31T00:19:49;97667.81;;;14.09;85.85
5062;BME280;2351;50.812;12.872;2023-07-31T00:22:21;97666.16;;;14.08;85.89
5062;BME280;2351;50.812;12.872;2023-07-31T00:24:53;97667.16;;;14.07;85.89
5062;BME280;2351;50.812;12.872;2023-07-31T00:27:25;97656.50;;;14.07;86.10
5062;BME280;2351;50.812;12.872;2023-07-31T00:29:58;97661.81;;;14.07;86.07
5062;BME280;2351;50.812;12.872;2023-07-31T00:32:29;97658.00;;;14.09;86.08
5062;BME280;2351;50.812;12.872;2023-07-31T00:35:01;97654.34;;;14.10;86.17
5062;BME280;2351;50.812;12.872;2023-07-31T00:37:33;97645.38;;;14.11;86.17
5062;BME280;2351;50.812;12.872;2023-07-31T00:40:06;97645.38;;;14.11;86.16
5062;BME280;2351;50.812;12.872;2023-07-31T00:42:38;97637.38;;;14.11;86.23
5062;BME280;2351;50.812;12.872;2023-07-31T00:45:11;97641.72;;;14.12;86.35
5062;BME280;2351;50.812;12.872;2023-07-31T00:47:43;97635.72;;;14.10;86.32
5062;BME280;2351;50.812;12.872;2023-07-31T00:50:14;97629.41;;;14.11;86.37
5062;BME280;2351;50.812;12.872;2023-07-31T00:52:46;97625.56;;;14.14;86.42
5062;BME280;2351;50.812;12.872;2023-07-31T00:55:18;97630.56;;;14.17;86.36
5062;BME280;2351;50.812;12.872;2023-07-31T00:57:52;97628.59;;;14.19;86.47
5062;BME280;2351;50.812;12.872;2023-07-31T01:00:27;97628.75;;;14.26;86.38
5062;BME280;2351;50.812;12.872;2023-07-31T01:02:59;97624.78;;;14.30;86.54
5062;BME280;2351;50.812;12.872;2023-07-31T01:05:39;97623.47;;;14.34;86.38
5062;BME280;2351;50.812;12.872;2023-07-31T01:08:18;97627.59;;;14.37;86.27
5062;BME280;2351;50.812;12.872;2023-07-31T01:11:05;97632.47;;;14.41;86.32
5062;BME280;2351;50.812;12.872;2023-07-31T01:13:39;97626.81;;;14.44;86.11
5062;BME280;2351;50.812;12.872;2023-07-31T01:16:12;97631.13;;;14.45;85.87
5062;BME280;2351;50.812;12.872;2023-07-31T01:18:43;97622.13;;;14.46;85.93
5062;BME280;2351;50.812;12.872;2023-07-31T01:21:37;97619.00;;;14.51;85.71
5062;BME280;2351;50.812;12.872;2023-07-31T01:24:20;97615.16;;;14.54;85.69
5062;BME280;2351;50.812;12.872;2023-07-31T01:26:56;97621.81;;;14.58;85.87
5062;BME280;2351;50.812;12.872;2023-07-31T01:29:34;97618.97;;;14.59;85.34
5062;BME280;2351;50.812;12.872;2023-07-31T01:32:10;97610.00;;;14.60;85.33
5062;BME280;2351;50.812;12.872;2023-07-31T01:34:43;97605.50;;;14.61;85.24
5062;BME280;2351;50.812;12.872;2023-07-31T01:37:15;97606.34;;;14.61;84.94
5062;BME280;2351;50.812;12.872;2023-07-31T01:39:47;97612.00;;;14.67;85.02
5062;BME280;2351;50.812;12.872;2023-07-31T01:42:20;97609.03;;;14.70;85.01
5062;BME280;2351;50.812;12.872;2023-07-31T01:44:52;97613.03;;;14.74;84.94
5062;BME280;2351;50.812;12.872;2023-07-31T01:47:24;97617.84;;;14.79;84.70
5062;BME280;2351;50.812;12.872;2023-07-31T01:49:56;97614.38;;;14.78;84.20
5062;BME280;2351;50.812;12.872;2023-07-31T01:52:27;97616.69;;;14.81;84.46
5062;BME280;2351;50.812;12.872;2023-07-31T01:55:00;97611.22;;;14.83;84.48
5062;BME280;2351;50.812;12.872;2023-07-31T01:57:33;97612.19;;;14.82;84.16
5062;BME280;2351;50.812;12.872;2023-07-31T02:00:06;97612.19;;;14.82;84.22
5062;BME280;2351;50.812;12.872;2023-07-31T02:02:38;97620.00;;;14.83;84.37
5062;BME280;2351;50.812;12.872;2023-07-31T02:05:10;97618.34;;;14.82;84.55
5062;BME280;2351;50.812;12.872;2023-07-31T02:07:41;97619.53;;;14.80;84.64
5062;BME280;2351;50.812;12.872;2023-07-31T02:10:13;97616.00;;;14.79;85.00
5062;BME280;2351;50.812;12.872;2023-07-31T02:12:46;97611.88;;;14.76;85.67
5062;BME280;2351;50.812;12.872;2023-07-31T02:15:18;97612.53;;;14.70;86.05
5062;BME280;2351;50.812;12.872;2023-07-31T02:17:49;97614.00;;;14.65;86.43
5062;BME280;2351;50.812;12.872;2023-07-31T02:20:21;97618.97;;;14.59;86.64
5062;BME280;2351;50.812;12.872;2023-07-31T02:22:53;97615.16;;;14.54;87.29
5062;BME280;2351;50.812;12.872;2023-07-31T02:25:24;97618.66;;;14.46;89.36
5062;BME280;2351;50.812;12.872;2023-07-31T02:27:58;97618.94;;;14.35;89.49
5062;BME280;2351;50.812;12.872;2023-07-31T02:30:29;97619.94;;;14.25;89.80
5062;BME280;2351;50.812;12.872;2023-07-31T02:33:01;97610.13;;;14.18;90.42
5062;BME280;2351;50.812;12.872;2023-07-31T02:35:33;97611.63;;;14.12;91.08
5062;BME280;2351;50.812;12.872;2023-07-31T02:38:04;97607.75;;;14.06;91.52
5062;BME280;2351;50.812;12.872;2023-07-31T02:40:36;97598.59;;;14.00;91.90
5062;BME280;2351;50.812;12.872;2023-07-31T02:43:09;97600.25;;;13.93;92.03
5062;BME280;2351;50.812;12.872;2023-07-31T02:45:41;97595.41;;;13.89;92.24
5062;BME280;2351;50.812;12.872;2023-07-31T02:48:13;97591.59;;;13.83;92.80
5062;BME280;2351;50.812;12.872;2023-07-31T02:50:44;97595.06;;;13.75;93.03
5062;BME280;2351;50.812;12.872;2023-07-31T02:53:16;97589.19;;;13.71;93.56
5062;BME280;2351;50.812;12.872;2023-07-31T02:55:48;97583.38;;;13.68;93.92
5062;BME280;2351;50.812;12.872;2023-07-31T02:58:21;97582.03;;;13.64;94.62
5062;BME280;2351;50.812;12.872;2023-07-31T03:00:52;97585.19;;;13.59;95.21
5062;BME280;2351;50.812;12.872;2023-07-31T03:03:24;97578.19;;;13.58;95.32
5062;BME280;2351;50.812;12.872;2023-07-31T03:05:56;97580.34;;;13.54;95.89
5062;BME280;2351;50.812;12.872;2023-07-31T03:08:27;97584.69;;;13.55;96.62
5062;BME280;2351;50.812;12.872;2023-07-31T03:10:59;97575.72;;;13.57;96.86
5062;BME280;2351;50.812;12.872;2023-07-31T03:13:32;97586.34;;;13.57;96.98
5062;BME280;2351;50.812;12.872;2023-07-31T03:16:04;97572.53;;;13.53;97.68
5062;BME280;2351;50.812;12.872;2023-07-31T03:18:35;97577.84;;;13.53;98.75
5062;BME280;2351;50.812;12.872;2023-07-31T03:21:07;97585.00;;;13.52;99.53
5062;BME280;2351;50.812;12.872;2023-07-31T03:23:38;97578.00;;;13.51;100.00
5062;BME280;2351;50.812;12.872;2023-07-31T03:26:10;97569.34;;;13.49;100.00
5062;BME280;2351;50.812;12.872;2023-07-31T03:28:43;97574.81;;;13.48;100.00
5062;BME280;2351;50.812;12.872;2023-07-31T03:31:15;97581.97;;;13.47;100.00
5062;BME280;2351;50.812;12.872;2023-07-31T03:33:47;97580.31;;;13.46;100.00
5062;BME280;2351;50.812;12.872;2023-07-31T03:36:18;97579.81;;;13.43;100.00
5062;BME280;2351;50.812;12.872;2023-07-31T03:38:51;97573.91;;;13.39;100.00
5062;BME280;2351;50.812;12.872;2023-07-31T03:41:23;97581.22;;;13.37;100.00
5062;BME280;2351;50.812;12.872;2023-07-31T03:43:56;97570.59;;;13.37;100.00
5062;BME280;2351;50.812;12.872;2023-07-31T03:46:27;97572.59;;;13.35;100.00
5062;BME280;2351;50.812;12.872;2023-07-31T03:48:59;97567.28;;;13.35;100.00
5062;BME280;2351;50.812;12.872;2023-07-31T03:51:31;97570.09;;;13.33;100.00
5062;BME280;2351;50.812;12.872;2023-07-31T03:54:03;97571.75;;;13.34;100.00
5062;BME280;2351;50.812;12.872;2023-07-31T03:56:35;97564.75;;;13.33;100.00
5062;BME280;2351;50.812;12.872;2023-07-31T03:59:09;97571.06;;;13.32;100.00
5062;BME280;2351;50.812;12.872;2023-07-31T04:01:41;97566.91;;;13.30;100.00
5062;BME280;2351;50.812;12.872;2023-07-31T04:04:13;97565.94;;;13.31;100.00
5062;BME280;2351;50.812;12.872;2023-07-31T04:06:44;97560.63;;;13.31;100.00
5062;BME280;2351;50.812;12.872;2023-07-31T04:09:16;97563.28;;;13.31;100.00
5062;BME280;2351;50.812;12.872;2023-07-31T04:11:48;97565.94;;;13.31;100.00
5062;BME280;2351;50.812;12.872;2023-07-31T04:14:21;97559.75;;;13.30;100.00
5062;BME280;2351;50.812;12.872;2023-07-31T04:16:52;97558.94;;;13.30;100.00
5062;BME280;2351;50.812;12.872;2023-07-31T04:19:24;97551.66;;;13.32;100.00
5062;BME280;2351;50.812;12.872;2023-07-31T04:21:56;97554.97;;;13.34;100.00
5062;BME280;2351;50.812;12.872;2023-07-31T04:24:28;97557.63;;;13.34;100.00
5062;BME280;2351;50.812;12.872;2023-07-31T04:27:00;97549.66;;;13.34;100.00
5062;BME280;2351;50.812;12.872;2023-07-31T04:29:33;97542.34;;;13.36;100.00
5062;BME280;2351;50.812;12.872;2023-07-31T04:32:05;97551.00;;;13.38;100.00
5062;BME280;2351;50.812;12.872;2023-07-31T04:34:37;97553.66;;;13.38;100.00
5062;BME280;2351;50.812;12.872;2023-07-31T04:37:09;97539.09;;;13.42;100.00
5062;BME280;2351;50.812;12.872;2023-07-31T04:39:40;97540.06;;;13.41;100.00
5062;BME280;2351;50.812;12.872;2023-07-31T04:42:12;97534.63;;;13.43;100.00
5062;BME280;2351;50.812;12.872;2023-07-31T04:44:45;97532.63;;;13.45;100.00
5062;BME280;2351;50.812;12.872;2023-07-31T04:47:17;97517.31;;;13.47;100.00
5062;BME280;2351;50.812;12.872;2023-07-31T04:49:49;97521.50;;;13.49;100.00
5062;BME280;2351;50.812;12.872;2023-07-31T04:52:21;97521.19;;;13.52;100.00
5062;BME280;2351;50.812;12.872;2023-07-31T04:54:52;97522.84;;;13.53;100.00
5062;BME280;2351;50.812;12.872;2023-07-31T04:57:24;97520.69;;;13.57;100.00
5062;BME280;2351;50.812;12.872;2023-07-31T04:59:57;97523.84;;;13.61;100.00
5062;BME280;2351;50.812;12.872;2023-07-31T05:02:29;97514.41;;;13.66;100.00
5062;BME280;2351;50.812;12.872;2023-07-31T05:05:00;97521.22;;;13.69;100.00
5062;BME280;2351;50.812;12.872;2023-07-31T05:07:32;97517.25;;;13.73;100.00
5062;BME280;2351;50.812;12.872;2023-07-31T05:10:04;97516.59;;;13.79;100.00
5062;BME280;2351;50.812;12.872;2023-07-31T05:12:36;97521.59;;;13.82;100.00
5062;BME280;2351;50.812;12.872;2023-07-31T05:15:10;97516.94;;;13.84;100.00
5062;BME280;2351;50.812;12.872;2023-07-31T05:17:41;97522.09;;;13.86;100.00
5062;BME280;2351;50.812;12.872;2023-07-31T05:20:13;97511.28;;;13.88;100.00
5062;BME280;2351;50.812;12.872;2023-07-31T05:22:45;97511.16;;;13.89;100.00
5062;BME280;2351;50.812;12.872;2023-07-31T05:25:17;97507.63;;;13.89;100.00
5062;BME280;2351;50.812;12.872;2023-07-31T05:27:49;97510.28;;;13.89;100.00
5062;BME280;2351;50.812;12.872;2023-07-31T05:30:22;97505.81;;;13.89;100.00
5062;BME280;2351;50.812;12.872;2023-07-31T05:32:53;97515.63;;;13.89;100.00
5062;BME280;2351;50.812;12.872;2023-07-31T05:35:25;97507.50;;;13.90;100.00
5062;BME280;2351;50.812;12.872;2023-07-31T05:37:57;97509.47;;;13.88;100.00
5062;BME280;2351;50.812;12.872;2023-07-31T05:40:28;97525.94;;;13.92;100.00
5062;BME280;2351;50.812;12.872;2023-07-31T05:43:03;97526.94;;;13.91;100.00
5062;BME280;2351;50.812;12.872;2023-07-31T05:45:38;97525.09;;;13.91;100.00
5062;BME280;2351;50.812;12.872;2023-07-31T05:48:10;97512.44;;;13.93;100.00
5062;BME280;2351;50.812;12.872;2023-07-31T05:50:43;97516.97;;;13.93;100.00
5062;BME280;2351;50.812;12.872;2023-07-31T05:53:14;97512.31;;;13.95;100.00
5062;BME280;2351;50.812;12.872;2023-07-31T05:55:46;97514.97;;;13.95;100.00
5062;BME280;2351;50.812;12.872;2023-07-31T05:58:18;97518.31;;;13.97;100.00
5062;BME280;2351;50.812;12.872;2023-07-31T06:00:51;97522.31;;;14.01;100.00
5062;BME280;2351;50.812;12.872;2023-07-31T06:03:23;97513.28;;;14.02;100.00
5062;BME280;2351;50.812;12.872;2023-07-31T06:05:54;97515.94;;;14.02;100.00
5062;BME280;2351;50.812;12.872;2023-07-31T06:08:26;97508.31;;;14.07;100.00
5062;BME280;2351;50.812;12.872;2023-07-31T06:10:58;97508.00;;;14.10;100.00
5062;BME280;2351;50.812;12.872;2023-07-31T06:13:29;97511.00;;;14.15;100.00
5062;BME280;2351;50.812;12.872;2023-07-31T06:16:03;97503.69;;;14.18;100.00
5062;BME280;2351;50.812;12.872;2023-07-31T06:18:36;97506.69;;;14.23;100.00
5062;BME280;2351;50.812;12.872;2023-07-31T06:21:09;97504.34;;;14.28;100.00
5062;BME280;2351;50.812;12.872;2023-07-31T06:23:41;97497.69;;;14.32;100.00
5062;BME280;2351;50.812;12.872;2023-07-31T06:26:13;97502.00;;;14.33;100.00
5062;BME280;2351;50.812;12.872;2023-07-31T06:28:45;97496.03;;;14.39;100.00
5062;BME280;2351;50.812;12.872;2023-07-31T06:31:18;97497.34;;;14.43;100.00
5062;BME280;2351;50.812;12.872;2023-07-31T06:33:53;97499.50;;;14.48;100.00
5062;BME280;2351;50.812;12.872;2023-07-31T06:36:25;97498.31;;;14.51;100.00
5062;BME280;2351;50.812;12.872;2023-07-31T06:38:57;97503.81;;;14.57;100.00
5062;BME280;2351;50.812;12.872;2023-07-31T06:41:28;97503.31;;;14.62;100.00
5062;BME280;2351;50.812;12.872;2023-07-31T06:44:00;97500.31;;;14.65;100.00
5062;BME280;2351;50.812;12.872;2023-07-31T06:46:33;97499.84;;;14.70;100.00
5062;BME280;2351;50.812;12.872;2023-07-31T06:49:05;97499.00;;;14.69;100.00
5062;BME280;2351;50.812;12.872;2023-07-31T06:51:37;97492.19;;;14.75;100.00
5062;BME280;2351;50.812;12.872;2023-07-31T06:54:08;97494.34;;;14.71;100.00
5062;BME280;2351;50.812;12.872;2023-07-31T06:56:40;97501.00;;;14.75;100.00
5062;BME280;2351;50.812;12.872;2023-07-31T06:59:12;97493.81;;;14.84;100.00
5062;BME280;2351;50.812;12.872;2023-07-31T07:01:45;97502.59;;;14.93;100.00
5062;BME280;2351;50.812;12.872;2023-07-31T07:04:17;97502.44;;;14.95;100.00
5062;BME280;2351;50.812;12.872;2023-07-31T07:06:49;97493.25;;;15.05;100.00
5062;BME280;2351;50.812;12.872;2023-07-31T07:09:20;97505.25;;;15.10;100.00
5062;BME280;2351;50.812;12.872;2023-07-31T07:11:52;97501.53;;;15.19;100.00
5062;BME280;2351;50.812;12.872;2023-07-31T07:14:24;97503.59;;;15.09;100.00
5062;BME280;2351;50.812;12.872;2023-07-31T07:16:57;97495.38;;;15.18;100.00
5062;BME280;2351;50.812;12.872;2023-07-31T07:19:28;97497.34;;;15.25;100.00
5062;BME280;2351;50.812;12.872;2023-07-31T07:22:01;97494.47;;;15.34;100.00
5062;BME280;2351;50.812;12.872;2023-07-31T07:24:32;97495.31;;;15.35;100.00
5062;BME280;2351;50.812;12.872;2023-07-31T07:27:05;97502.84;;;15.31;100.00
5062;BME280;2351;50.812;12.872;2023-07-31T07:29:37;97505.97;;;15.35;100.00
5062;BME280;2351;50.812;12.872;2023-07-31T07:32:11;97512.50;;;15.32;100.00
5062;BME280;2351;50.812;12.872;2023-07-31T07:34:43;97506.94;;;15.42;100.00
5062;BME280;2351;50.812;12.872;2023-07-31T07:37:14;97513.41;;;15.48;100.00
5062;BME280;2351;50.812;12.872;2023-07-31T07:39:46;97504.72;;;15.54;100.00
5062;BME280;2351;50.812;12.872;2023-07-31T07:42:18;97509.34;;;15.60;100.00
5062;BME280;2351;50.812;12.872;2023-07-31T07:44:50;97505.31;;;15.64;100.00
5062;BME280;2351;50.812;12.872;2023-07-31T07:47:23;97503.63;;;15.72;99.46
5062;BME280;2351;50.812;12.872;2023-07-31T07:49:54;97501.88;;;15.79;99.63
5062;BME280;2351;50.812;12.872;2023-07-31T07:52:26;97499.88;;;15.81;97.22
5062;BME280;2351;50.812;12.872;2023-07-31T07:54:58;97500.06;;;15.88;97.78
5062;BME280;2351;50.812;12.872;2023-07-31T07:57:30;97498.50;;;15.93;96.55
5062;BME280;2351;50.812;12.872;2023-07-31T08:00:02;97495.66;;;15.95;95.68
5062;BME280;2351;50.812;12.872;2023-07-31T08:02:35;97511.78;;;16.02;96.10
5062;BME280;2351;50.812;12.872;2023-07-31T08:05:08;97509.13;;;16.02;94.67
5062;BME280;2351;50.812;12.872;2023-07-31T08:07:40;97510.13;;;16.01;94.86
5062;BME280;2351;50.812;12.872;2023-07-31T08:10:11;97518.97;;;16.01;94.35
5062;BME280;2351;50.812;12.872;2023-07-31T08:12:43;97519.16;;;16.00;94.55
5062;BME280;2351;50.812;12.872;2023-07-31T08:15:15;97500.19;;;15.94;93.66
5062;BME280;2351;50.812;12.872;2023-07-31T08:17:48;97512.22;;;15.90;93.36
5062;BME280;2351;50.812;12.872;2023-07-31T08:20:20;97511.84;;;15.93;93.80
5062;BME280;2351;50.812;12.872;2023-07-31T08:22:51;97516.66;;;15.98;93.89
5062;BME280;2351;50.812;12.872;2023-07-31T08:25:23;97515.66;;;15.99;94.03
5062;BME280;2351;50.812;12.872;2023-07-31T08:27:55;97518.13;;;16.01;93.76
5062;BME280;2351;50.812;12.872;2023-07-31T08:30:26;97520.31;;;15.97;93.38
5062;BME280;2351;50.812;12.872;2023-07-31T08:32:59;97515.84;;;15.98;93.64
5062;BME280;2351;50.812;12.872;2023-07-31T08:35:31;97520.63;;;16.02;93.71
5062;BME280;2351;50.812;12.872;2023-07-31T08:38:03;97517.50;;;15.99;93.29
5062;BME280;2351;50.812;12.872;2023-07-31T08:40:36;97512.63;;;16.02;93.74
5062;BME280;2351;50.812;12.872;2023-07-31T08:43:08;97515.59;;;16.07;93.70
5062;BME280;2351;50.812;12.872;2023-07-31T08:45:41;97510.25;;;16.07;93.32
5062;BME280;2351;50.812;12.872;2023-07-31T08:48:15;97512.59;;;16.10;93.57
5062;BME280;2351;50.812;12.872;2023-07-31T08:50:49;97510.38;;;16.14;93.81
5062;BME280;2351;50.812;12.872;2023-07-31T08:53:21;97503.50;;;16.20;93.76
5062;BME280;2351;50.812;12.872;2023-07-31T08:55:53;97506.63;;;16.23;93.43
5062;BME280;2351;50.812;12.872;2023-07-31T08:58:27;97515.47;;;16.24;93.29
5062;BME280;2351;50.812;12.872;2023-07-31T09:01:01;97503.59;;;16.26;93.60
5062;BME280;2351;50.812;12.872;2023-07-31T09:03:36;97503.25;;;16.30;93.52
5062;BME280;2351;50.812;12.872;2023-07-31T09:06:09;97501.53;;;16.37;93.69
5062;BME280;2351;50.812;12.872;2023-07-31T09:08:42;97498.31;;;16.41;93.43
5062;BME280;2351;50.812;12.872;2023-07-31T09:11:38;97505.97;;;16.45;93.29
5062;BME280;2351;50.812;12.872;2023-07-31T09:14:10;97500.41;;;16.46;93.01
5062;BME280;2351;50.812;12.872;2023-07-31T09:16:51;97498.75;;;16.45;92.78
5062;BME280;2351;50.812;12.872;2023-07-31T09:19:31;97493.34;;;16.53;92.99
5062;BME280;2351;50.812;12.872;2023-07-31T09:22:04;97493.34;;;16.53;92.71
5062;BME280;2351;50.812;12.872;2023-07-31T09:24:36;97509.38;;;16.53;92.31
5062;BME280;2351;50.812;12.872;2023-07-31T09:27:08;97502.84;;;16.56;92.07
5062;BME280;2351;50.812;12.872;2023-07-31T09:29:40;97492.63;;;16.60;92.50
5062;BME280;2351;50.812;12.872;2023-07-31T09:32:15;97491.06;;;16.65;92.46
5062;BME280;2351;50.812;12.872;2023-07-31T09:34:49;97491.53;;;16.69;92.15
5062;BME280;2351;50.812;12.872;2023-07-31T09:37:20;97493.69;;;16.74;92.22
5062;BME280;2351;50.812;12.872;2023-07-31T09:39:52;97486.41;;;16.82;92.28
5062;BME280;2351;50.812;12.872;2023-07-31T09:42:29;97487.31;;;16.90;92.13
5062;BME280;2351;50.812;12.872;2023-07-31T09:45:08;97488.91;;;16.99;92.04
5062;BME280;2351;50.812;12.872;2023-07-31T09:47:46;97479.31;;;17.05;91.83
5062;BME280;2351;50.812;12.872;2023-07-31T09:50:20;97474.53;;;17.15;91.55
5062;BME280;2351;50.812;12.872;2023-07-31T09:52:52;97476.47;;;17.21;91.66
5062;BME280;2351;50.812;12.872;2023-07-31T09:55:24;97471.00;;;17.29;91.35
5062;BME280;2351;50.812;12.872;2023-07-31T09:57:57;97481.78;;;17.36;91.05
5062;BME280;2351;50.812;12.872;2023-07-31T10:00:30;97474.75;;;17.50;90.37
5062;BME280;2351;50.812;12.872;2023-07-31T10:03:04;97468.44;;;17.58;90.14
5062;BME280;2351;50.812;12.872;2023-07-31T10:05:40;97457.91;;;17.71;89.98
5062;BME280;2351;50.812;12.872;2023-07-31T10:08:14;97462.09;;;17.81;88.84
5062;BME280;2351;50.812;12.872;2023-07-31T10:10:46;97452.56;;;17.93;89.54
5062;BME280;2351;50.812;12.872;2023-07-31T10:13:18;97455.78;;;18.03;87.85
5062;BME280;2351;50.812;12.872;2023-07-31T10:15:52;97449.88;;;18.08;87.87
5062;BME280;2351;50.812;12.872;2023-07-31T10:18:25;97447.56;;;18.05;86.91
5062;BME280;2351;50.812;12.872;2023-07-31T10:20:58;97451.06;;;18.05;86.74
5062;BME280;2351;50.812;12.872;2023-07-31T10:23:30;97449.28;;;18.13;86.70
5062;BME280;2351;50.812;12.872;2023-07-31T10:26:03;97449.75;;;18.23;86.70
5062;BME280;2351;50.812;12.872;2023-07-31T10:28:36;97449.75;;;18.23;86.02
5062;BME280;2351;50.812;12.872;2023-07-31T10:31:08;97448.81;;;18.31;86.18
5062;BME280;2351;50.812;12.872;2023-07-31T10:33:40;97443.22;;;18.26;85.20
5062;BME280;2351;50.812;12.872;2023-07-31T10:36:14;97447.72;;;18.25;85.47
5062;BME280;2351;50.812;12.872;2023-07-31T10:38:49;97449.53;;;18.18;86.01
5062;BME280;2351;50.812;12.872;2023-07-31T10:41:28;97452.59;;;18.15;87.41
5062;BME280;2351;50.812;12.872;2023-07-31T10:44:01;97445.19;;;18.17;88.19
5062;BME280;2351;50.812;12.872;2023-07-31T10:46:33;97443.97;;;18.19;88.93
5062;BME280;2351;50.812;12.872;2023-07-31T10:49:05;97435.81;;;18.28;89.60
5062;BME280;2351;50.812;12.872;2023-07-31T10:51:40;97434.44;;;18.39;89.47
5062;BME280;2351;50.812;12.872;2023-07-31T10:54:13;97432.88;;;18.51;89.55
5062;BME280;2351;50.812;12.872;2023-07-31T10:56:45;97426.56;;;18.65;89.06
5062;BME280;2351;50.812;12.872;2023-07-31T10:59:17;97410.59;;;18.79;88.63
5062;BME280;2351;50.812;12.872;2023-07-31T11:01:50;97413.66;;;18.76;85.56
5062;BME280;2351;50.812;12.872;2023-07-31T11:04:23;97416.56;;;18.81;85.49
5062;BME280;2351;50.812;12.872;2023-07-31T11:06:58;97422.34;;;18.85;84.33
5062;BME280;2351;50.812;12.872;2023-07-31T11:09:31;97405.28;;;18.92;84.62
5062;BME280;2351;50.812;12.872;2023-07-31T11:12:04;97396.47;;;18.99;83.65
5062;BME280;2351;50.812;12.872;2023-07-31T11:14:36;97400.81;;;19.00;82.80
5062;BME280;2351;50.812;12.872;2023-07-31T11:17:08;97399.00;;;19.07;82.90
5062;BME280;2351;50.812;12.872;2023-07-31T11:19:39;97396.34;;;19.14;82.13
5062;BME280;2351;50.812;12.872;2023-07-31T11:22:13;97397.38;;;19.13;81.20
5062;BME280;2351;50.812;12.872;2023-07-31T11:24:45;97402.13;;;19.17;81.00
5062;BME280;2351;50.812;12.872;2023-07-31T11:27:16;97375.31;;;19.17;79.26
5062;BME280;2351;50.812;12.872;2023-07-31T11:29:50;97393.44;;;19.15;78.76
5062;BME280;2351;50.812;12.872;2023-07-31T11:32:23;97393.25;;;19.17;78.14
5062;BME280;2351;50.812;12.872;2023-07-31T11:34:54;97389.81;;;19.30;77.20
5062;BME280;2351;50.812;12.872;2023-07-31T11:37:40;97375.56;;;19.42;76.78
5062;BME280;2351;50.812;12.872;2023-07-31T11:40:12;97378.47;;;19.48;76.24
5062;BME280;2351;50.812;12.872;2023-07-31T11:42:43;97369.22;;;19.50;75.73
5062;BME280;2351;50.812;12.872;2023-07-31T11:45:15;97369.41;;;19.55;74.94
5062;BME280;2351;50.812;12.872;2023-07-31T11:47:47;97367.97;;;19.53;74.81
5062;BME280;2351;50.812;12.872;2023-07-31T11:50:19;97371.69;;;19.59;74.98
5062;BME280;2351;50.812;12.872;2023-07-31T11:52:54;97369.84;;;19.59;75.15
5062;BME280;2351;50.812;12.872;2023-07-31T11:55:27;97371.50;;;19.60;74.94
5062;BME280;2351;50.812;12.872;2023-07-31T11:58:00;97367.78;;;19.61;75.14
5062;BME280;2351;50.812;12.872;2023-07-31T12:00:32;97369.22;;;19.50;73.96
5062;BME280;2351;50.812;12.872;2023-07-31T12:03:04;97365.06;;;19.41;74.01
5062;BME280;2351;50.812;12.872;2023-07-31T12:05:37;97365.69;;;19.43;74.67
5062;BME280;2351;50.812;12.872;2023-07-31T12:08:11;97361.34;;;19.55;74.81
5062;BME280;2351;50.812;12.872;2023-07-31T12:10:43;97348.38;;;19.72;75.20
5062;BME280;2351;50.812;12.872;2023-07-31T12:13:20;97340.34;;;19.86;72.85
5062;BME280;2351;50.812;12.872;2023-07-31T12:15:54;97343.84;;;20.00;72.83
5062;BME280;2351;50.812;12.872;2023-07-31T12:18:28;97336.63;;;20.14;72.95
5062;BME280;2351;50.812;12.872;2023-07-31T12:21:01;97327.34;;;20.16;71.78
5062;BME280;2351;50.812;12.872;2023-07-31T12:23:35;97338.06;;;20.30;72.43
5062;BME280;2351;50.812;12.872;2023-07-31T12:26:09;97323.38;;;20.39;71.37
5062;BME280;2351;50.812;12.872;2023-07-31T12:28:42;97326.66;;;20.41;70.39
5062;BME280;2351;50.812;12.872;2023-07-31T12:31:15;97321.72;;;20.38;69.90
5062;BME280;2351;50.812;12.872;2023-07-31T12:33:48;97332.84;;;20.49;70.59
5062;BME280;2351;50.812;12.872;2023-07-31T12:36:22;97334.09;;;20.46;69.24
5062;BME280;2351;50.812;12.872;2023-07-31T12:38:55;97328.94;;;20.38;69.16
5062;BME280;2351;50.812;12.872;2023-07-31T12:41:29;97319.41;;;20.49;70.08
5062;BME280;2351;50.812;12.872;2023-07-31T12:44:00;97311.50;;;20.60;69.54
5062;BME280;2351;50.812;12.872;2023-07-31T12:46:33;97312.97;;;20.63;69.06
5062;BME280;2351;50.812;12.872;2023-07-31T12:49:05;97300.56;;;20.55;68.79
5062;BME280;2351;50.812;12.872;2023-07-31T12:51:37;97298.09;;;20.54;68.50
5062;BME280;2351;50.812;12.872;2023-07-31T12:54:10;97296.66;;;20.44;68.38
5062;BME280;2351;50.812;12.872;2023-07-31T12:56:41;97286.56;;;20.40;68.97
5062;BME280;2351;50.812;12.872;2023-07-31T12:59:13;97296.03;;;20.42;68.00
5062;BME280;2351;50.812;12.872;2023-07-31T13:01:45;97297.09;;;20.41;69.03
5062;BME280;2351;50.812;12.872;2023-07-31T13:04:17;97291.91;;;20.46;69.39
5062;BME280;2351;50.812;12.872;2023-07-31T13:06:49;97286.53;;;20.46;69.66
5062;BME280;2351;50.812;12.872;2023-07-31T13:09:22;97280.72;;;20.56;69.89
5062;BME280;2351;50.812;12.872;2023-07-31T13:11:54;97278.59;;;20.65;69.73
5062;BME280;2351;50.812;12.872;2023-07-31T13:14:25;97286.44;;;20.80;69.87
5062;BME280;2351;50.812;12.872;2023-07-31T13:16:57;97291.44;;;20.76;68.21
5062;BME280;2351;50.812;12.872;2023-07-31T13:19:29;97283.75;;;20.80;67.93
5062;BME280;2351;50.812;12.872;2023-07-31T13:22:01;97273.66;;;21.07;68.31
5062;BME280;2351;50.812;12.872;2023-07-31T13:24:34;97281.66;;;21.21;66.67
5062;BME280;2351;50.812;12.872;2023-07-31T13:27:06;97279.97;;;21.27;66.82
5062;BME280;2351;50.812;12.872;2023-07-31T13:29:37;97271.91;;;21.27;66.72
5062;BME280;2351;50.812;12.872;2023-07-31T13:32:09;97263.78;;;21.33;66.58
5062;BME280;2351;50.812;12.872;2023-07-31T13:34:41;97258.94;;;21.49;65.77
5062;BME280;2351;50.812;12.872;2023-07-31T13:37:13;97248.66;;;21.64;66.20